Terminal Aerodrome Forecast
Issued by NWS Glasgow, MT

Current Version | Previous Version | Text Only | Print | Product List | Glossary On
Versions: 1 2 3 4 5 6 7 8 9 10 11 12
000
FTUS45 KGGW 271130
TAFGGW
TAF
KGGW 271130Z 2712/2812 10008KT P6SM -SHRA OVC045
     FM271800 12009KT P6SM -SHRA OVC035
     FM272100 10009KT P6SM VCSH OVC035
     FM280900 07005KT P6SM VCSH BKN040=

USA.gov is the U.S. government's official web portal to all federal, state and local government web resources and services.